sensor_id;sensor_type;location;lat;lon;timestamp;pressure;altitude;pressure_sealevel;temperature;humidity
74242;BME280;62599;49.146;10.426;2023-04-03T00:00:52;96450.59;;;1.23;82.98
74242;BME280;62599;49.146;10.426;2023-04-03T00:03:19;96453.25;;;1.23;83.39
74242;BME280;62599;49.146;10.426;2023-04-03T00:05:45;96450.31;;;1.19;83.57
74242;BME280;62599;49.146;10.426;2023-04-03T00:08:10;96443.13;;;1.14;83.85
74242;BME280;62599;49.146;10.426;2023-04-03T00:10:36;96456.94;;;1.16;83.23
74242;BME280;62599;49.146;10.426;2023-04-03T00:13:03;96455.88;;;1.17;82.82
74242;BME280;62599;49.146;10.426;2023-04-03T00:15:29;96447.34;;;1.15;83.10
74242;BME280;62599;49.146;10.426;2023-04-03T00:17:55;96453.72;;;1.14;83.73
74242;BME280;62599;49.146;10.426;2023-04-03T00:20:20;96448.13;;;1.11;83.59
74242;BME280;62599;49.146;10.426;2023-04-03T00:22:46;96448.13;;;1.11;83.13
74242;BME280;62599;49.146;10.426;2023-04-03T00:25:11;96440.44;;;1.09;83.54
74242;BME280;62599;49.146;10.426;2023-04-03T00:27:38;96448.38;;;1.09;83.07
74242;BME280;62599;49.146;10.426;2023-04-03T00:30:06;96447.31;;;1.10;83.19
74242;BME280;62599;49.146;10.426;2023-04-03T00:32:32;96444.41;;;1.12;82.33
74242;BME280;62599;49.146;10.426;2023-04-03T00:34:57;96453.72;;;1.14;81.82
74242;BME280;62599;49.146;10.426;2023-04-03T00:37:23;96453.72;;;1.14;82.43
74242;BME280;62599;49.146;10.426;2023-04-03T00:39:48;96452.13;;;1.13;81.86
74242;BME280;62599;49.146;10.426;2023-04-03T00:42:14;96444.19;;;1.13;81.80
74242;BME280;62599;49.146;10.426;2023-04-03T00:47:07;96457.13;;;1.10;82.66
74242;BME280;62599;49.146;10.426;2023-04-03T00:49:34;96456.34;;;1.09;83.15
74242;BME280;62599;49.146;10.426;2023-04-03T00:52:01;96452.34;;;1.07;83.08
74242;BME280;62599;49.146;10.426;2023-04-03T00:54:27;96453.13;;;1.07;82.32
74242;BME280;62599;49.146;10.426;2023-04-03T00:56:53;96448.81;;;1.01;82.79
74242;BME280;62599;49.146;10.426;2023-04-03T00:59:24;96452.00;;;0.98;81.99
74242;BME280;62599;49.146;10.426;2023-04-03T01:01:53;96448.22;;;0.94;82.44
74242;BME280;62599;49.146;10.426;2023-04-03T01:06:53;96451.41;;;0.91;84.01
74242;BME280;62599;49.146;10.426;2023-04-03T01:09:20;96448.19;;;0.89;83.42
74242;BME280;62599;49.146;10.426;2023-04-03T01:11:45;96452.13;;;0.86;82.79
74242;BME280;62599;49.146;10.426;2023-04-03T01:14:11;96452.41;;;0.85;83.01
74242;BME280;62599;49.146;10.426;2023-04-03T01:16:36;96450.81;;;0.84;82.80
74242;BME280;62599;49.146;10.426;2023-04-03T01:19:03;96455.28;;;0.83;82.75
74242;BME280;62599;49.146;10.426;2023-04-03T01:22:23;96459.56;;;0.84;82.19
74242;BME280;62599;49.146;10.426;2023-04-03T01:24:42;96453.44;;;0.84;82.11
74242;BME280;62599;49.146;10.426;2023-04-03T01:27:09;96448.69;;;0.86;82.59
74242;BME280;62599;49.146;10.426;2023-04-03T01:29:35;96453.75;;;0.87;82.66
74242;BME280;62599;49.146;10.426;2023-04-03T01:32:03;96456.63;;;0.86;82.63
74242;BME280;62599;49.146;10.426;2023-04-03T01:34:29;96458.50;;;0.85;82.38
74242;BME280;62599;49.146;10.426;2023-04-03T01:36:55;96447.28;;;0.78;83.59
74242;BME280;62599;49.146;10.426;2023-04-03T01:39:21;96448.53;;;0.70;83.66
74242;BME280;62599;49.146;10.426;2023-04-03T01:41:47;96446.81;;;0.59;83.58
74242;BME280;62599;49.146;10.426;2023-04-03T01:44:12;96447.31;;;0.56;83.18
74242;BME280;62599;49.146;10.426;2023-04-03T01:46:38;96446.97;;;0.47;84.02
74242;BME280;62599;49.146;10.426;2023-04-03T01:49:04;96445.84;;;0.43;84.83
74242;BME280;62599;49.146;10.426;2023-04-03T01:51:30;96453.00;;;0.43;84.52
74242;BME280;62599;49.146;10.426;2023-04-03T01:53:55;96448.25;;;0.45;84.04
74242;BME280;62599;49.146;10.426;2023-04-03T01:56:21;96440.84;;;0.47;84.82
74242;BME280;62599;49.146;10.426;2023-04-03T01:58:46;96444.06;;;0.49;84.73
74242;BME280;62599;49.146;10.426;2023-04-03T02:01:11;96452.28;;;0.47;85.20
74242;BME280;62599;49.146;10.426;2023-04-03T02:03:37;96450.91;;;0.45;85.34
74242;BME280;62599;49.146;10.426;2023-04-03T02:06:03;96450.09;;;0.44;86.30
74242;BME280;62599;49.146;10.426;2023-04-03T02:08:28;96450.66;;;0.46;85.56
74242;BME280;62599;49.146;10.426;2023-04-03T02:10:53;96460.22;;;0.47;85.24
74242;BME280;62599;49.146;10.426;2023-04-03T02:13:19;96453.91;;;0.54;85.42
74242;BME280;62599;49.146;10.426;2023-04-03T02:15:44;96457.13;;;0.56;85.39
74242;BME280;62599;49.146;10.426;2023-04-03T02:18:11;96456.31;;;0.55;85.84
74242;BME280;62599;49.146;10.426;2023-04-03T02:20:37;96456.31;;;0.55;85.70
74242;BME280;62599;49.146;10.426;2023-04-03T02:23:03;96452.00;;;0.49;85.21
74242;BME280;62599;49.146;10.426;2023-04-03T02:25:30;96452.94;;;0.38;86.01
74242;BME280;62599;49.146;10.426;2023-04-03T02:27:56;96459.00;;;0.33;86.17
74242;BME280;62599;49.146;10.426;2023-04-03T02:30:21;96465.84;;;0.29;86.55
74242;BME280;62599;49.146;10.426;2023-04-03T02:32:46;96464.47;;;0.27;86.50
74242;BME280;62599;49.146;10.426;2023-04-03T02:35:12;96465.25;;;0.27;86.60
74242;BME280;62599;49.146;10.426;2023-04-03T02:37:37;96464.78;;;0.30;87.11
74242;BME280;62599;49.146;10.426;2023-04-03T02:40:04;96460.84;;;0.33;87.24
74242;BME280;62599;49.146;10.426;2023-04-03T02:42:30;96456.56;;;0.32;87.10
74242;BME280;62599;49.146;10.426;2023-04-03T02:44:55;96460.59;;;0.34;87.52
74242;BME280;62599;49.146;10.426;2023-04-03T02:47:21;96459.78;;;0.34;87.21
74242;BME280;62599;49.146;10.426;2023-04-03T02:49:46;96451.84;;;0.34;86.58
74242;BME280;62599;49.146;10.426;2023-04-03T02:52:12;96462.66;;;0.32;86.89
74242;BME280;62599;49.146;10.426;2023-04-03T02:54:38;96463.22;;;0.34;87.20
74242;BME280;62599;49.146;10.426;2023-04-03T02:57:03;96460.84;;;0.33;86.86
74242;BME280;62599;49.146;10.426;2023-04-03T02:59:29;96458.19;;;0.33;86.22
74242;BME280;62599;49.146;10.426;2023-04-03T03:01:54;96464.28;;;0.33;86.84
74242;BME280;62599;49.146;10.426;2023-04-03T03:04:21;96464.78;;;0.30;86.66
74242;BME280;62599;49.146;10.426;2023-04-03T03:06:46;96465.31;;;0.32;87.14
74242;BME280;62599;49.146;10.426;2023-04-03T03:09:12;96463.41;;;0.28;86.82
74242;BME280;62599;49.146;10.426;2023-04-03T03:11:38;96458.59;;;0.24;86.84
74242;BME280;62599;49.146;10.426;2023-04-03T03:14:04;96457.00;;;0.23;86.89
74242;BME280;62599;49.146;10.426;2023-04-03T03:16:30;96461.50;;;0.23;86.65
74242;BME280;62599;49.146;10.426;2023-04-03T03:18:55;96458.06;;;0.22;86.84
74242;BME280;62599;49.146;10.426;2023-04-03T03:21:20;96461.19;;;0.19;87.19
74242;BME280;62599;49.146;10.426;2023-04-03T03:23:49;96454.19;;;0.08;87.39
74242;BME280;62599;49.146;10.426;2023-04-03T03:26:14;96456.75;;;0.03;88.19
74242;BME280;62599;49.146;10.426;2023-04-03T03:28:40;96460.38;;;-0.03;88.67
74242;BME280;62599;49.146;10.426;2023-04-03T03:31:07;96448.38;;;-0.11;88.79
74242;BME280;62599;49.146;10.426;2023-04-03T03:33:33;96460.25;;;-0.13;89.58
74242;BME280;62599;49.146;10.426;2023-04-03T03:35:59;96457.03;;;-0.15;89.51
74242;BME280;62599;49.146;10.426;2023-04-03T03:38:24;96451.41;;;-0.19;89.12
74242;BME280;62599;49.146;10.426;2023-04-03T03:40:51;96456.78;;;-0.14;88.95
74242;BME280;62599;49.146;10.426;2023-04-03T03:43:17;96452.22;;;-0.18;89.04
74242;BME280;62599;49.146;10.426;2023-04-03T03:45:44;96449.81;;;-0.20;89.51
74242;BME280;62599;49.146;10.426;2023-04-03T03:48:10;96449.75;;;-0.25;89.60
74242;BME280;62599;49.146;10.426;2023-04-03T03:50:36;96441.66;;;-0.35;90.07
74242;BME280;62599;49.146;10.426;2023-04-03T03:53:05;96450.47;;;-0.30;89.57
74242;BME280;62599;49.146;10.426;2023-04-03T03:55:31;96452.00;;;-0.34;89.91
74242;BME280;62599;49.146;10.426;2023-04-03T03:57:56;96455.75;;;-0.30;89.79
74242;BME280;62599;49.146;10.426;2023-04-03T04:00:22;96454.47;;;-0.27;90.04
74242;BME280;62599;49.146;10.426;2023-04-03T04:02:47;96449.44;;;-0.29;90.46
74242;BME280;62599;49.146;10.426;2023-04-03T04:05:12;96450.41;;;-0.35;91.03
74242;BME280;62599;49.146;10.426;2023-04-03T04:07:38;96447.84;;;-0.46;90.59
74242;BME280;62599;49.146;10.426;2023-04-03T04:10:04;96454.44;;;-0.49;91.17
74242;BME280;62599;49.146;10.426;2023-04-03T04:12:32;96457.47;;;-0.57;91.56
74242;BME280;62599;49.146;10.426;2023-04-03T04:14:58;96458.28;;;-0.57;92.87
74242;BME280;62599;49.146;10.426;2023-04-03T04:17:23;96459.66;;;-0.54;92.12
74242;BME280;62599;49.146;10.426;2023-04-03T04:19:48;96454.03;;;-0.58;92.67
74242;BME280;62599;49.146;10.426;2023-04-03T04:22:14;96463.47;;;-0.62;92.79
74242;BME280;62599;49.146;10.426;2023-04-03T04:24:40;96462.59;;;-0.67;93.70
74242;BME280;62599;49.146;10.426;2023-04-03T04:27:05;96463.81;;;-0.75;93.28
74242;BME280;62599;49.146;10.426;2023-04-03T04:29:30;96465.88;;;-0.77;94.17
74242;BME280;62599;49.146;10.426;2023-04-03T04:32:03;96463.50;;;-0.79;95.44
74242;BME280;62599;49.146;10.426;2023-04-03T04:34:29;96461.91;;;-0.80;95.34
74242;BME280;62599;49.146;10.426;2023-04-03T04:36:55;96466.94;;;-0.78;96.59
74242;BME280;62599;49.146;10.426;2023-04-03T04:39:20;96470.38;;;-0.78;95.76
74242;BME280;62599;49.146;10.426;2023-04-03T04:41:46;96466.69;;;-0.77;96.55
74242;BME280;62599;49.146;10.426;2023-04-03T04:44:11;96473.59;;;-0.76;95.52
74242;BME280;62599;49.146;10.426;2023-04-03T04:46:36;96475.19;;;-0.75;96.97
74242;BME280;62599;49.146;10.426;2023-04-03T04:49:02;96471.50;;;-0.74;95.93
74242;BME280;62599;49.146;10.426;2023-04-03T04:51:27;96474.94;;;-0.73;95.62
74242;BME280;62599;49.146;10.426;2023-04-03T04:53:53;96477.09;;;-0.70;96.17
74242;BME280;62599;49.146;10.426;2023-04-03T04:56:18;96484.50;;;-0.72;96.70
74242;BME280;62599;49.146;10.426;2023-04-03T04:58:44;96480.00;;;-0.71;96.55
74242;BME280;62599;49.146;10.426;2023-04-03T05:01:10;96479.19;;;-0.72;97.25
74242;BME280;62599;49.146;10.426;2023-04-03T05:03:36;96476.22;;;-0.76;97.39
74242;BME280;62599;49.146;10.426;2023-04-03T05:06:01;96475.97;;;-0.74;96.82
74242;BME280;62599;49.146;10.426;2023-04-03T05:08:27;96491.69;;;-0.67;97.65
74242;BME280;62599;49.146;10.426;2023-04-03T05:10:52;96484.03;;;-0.69;97.24
74242;BME280;62599;49.146;10.426;2023-04-03T05:13:18;96494.41;;;-0.62;97.63
74242;BME280;62599;49.146;10.426;2023-04-03T05:15:44;96493.94;;;-0.59;97.08
74242;BME280;62599;49.146;10.426;2023-04-03T05:18:10;96483.47;;;-0.54;97.66
74242;BME280;62599;49.146;10.426;2023-04-03T05:20:35;96485.84;;;-0.53;97.47
74242;BME280;62599;49.146;10.426;2023-04-03T05:23:02;96492.03;;;-0.47;97.10
74242;BME280;62599;49.146;10.426;2023-04-03T05:25:27;96497.41;;;-0.42;97.62
74242;BME280;62599;49.146;10.426;2023-04-03T05:27:53;96495.31;;;-0.40;97.38
74242;BME280;62599;49.146;10.426;2023-04-03T05:30:18;96495.38;;;-0.35;97.11
74242;BME280;62599;49.146;10.426;2023-04-03T05:32:44;96501.00;;;-0.31;97.22
74242;BME280;62599;49.146;10.426;2023-04-03T05:35:09;96501.63;;;-0.24;97.13
74242;BME280;62599;49.146;10.426;2023-04-03T05:37:35;96512.06;;;-0.17;97.50
74242;BME280;62599;49.146;10.426;2023-04-03T05:40:02;96506.28;;;-0.14;97.29
74242;BME280;62599;49.146;10.426;2023-04-03T05:42:31;96508.75;;;-0.08;97.25
74242;BME280;62599;49.146;10.426;2023-04-03T05:44:56;96507.56;;;0.00;97.36
74242;BME280;62599;49.146;10.426;2023-04-03T05:47:22;96501.22;;;0.01;97.39
74242;BME280;62599;49.146;10.426;2023-04-03T05:49:48;96499.34;;;0.02;97.70
74242;BME280;62599;49.146;10.426;2023-04-03T05:52:22;96507.19;;;0.13;97.63
74242;BME280;62599;49.146;10.426;2023-04-03T05:54:48;96500.63;;;0.16;97.53
74242;BME280;62599;49.146;10.426;2023-04-03T05:57:15;96501.47;;;0.21;96.86
74242;BME280;62599;49.146;10.426;2023-04-03T05:59:42;96506.75;;;0.21;96.91
74242;BME280;62599;49.146;10.426;2023-04-03T06:02:10;96510.28;;;0.27;96.84
74242;BME280;62599;49.146;10.426;2023-04-03T06:04:37;96506.41;;;0.35;96.78
74242;BME280;62599;49.146;10.426;2023-04-03T06:07:03;96518.50;;;0.47;96.78
74242;BME280;62599;49.146;10.426;2023-04-03T06:09:28;96513.22;;;0.47;96.17
74242;BME280;62599;49.146;10.426;2023-04-03T06:11:54;96516.22;;;0.56;95.71
74242;BME280;62599;49.146;10.426;2023-04-03T06:14:21;96511.84;;;0.67;95.87
74242;BME280;62599;49.146;10.426;2023-04-03T06:16:46;96516.88;;;0.68;95.50
74242;BME280;62599;49.146;10.426;2023-04-03T06:19:12;96518.00;;;0.72;94.94
74242;BME280;62599;49.146;10.426;2023-04-03T06:21:38;96520.53;;;0.84;95.70
74242;BME280;62599;49.146;10.426;2023-04-03T06:24:04;96512.75;;;0.78;94.54
74242;BME280;62599;49.146;10.426;2023-04-03T06:26:30;96522.63;;;0.82;93.66
74242;BME280;62599;49.146;10.426;2023-04-03T06:28:55;96524.44;;;0.77;94.23
74242;BME280;62599;49.146;10.426;2023-04-03T06:31:22;96528.72;;;0.83;93.99
74242;BME280;62599;49.146;10.426;2023-04-03T06:33:47;96525.66;;;0.91;93.69
74242;BME280;62599;49.146;10.426;2023-04-03T06:36:13;96523.84;;;0.96;93.79
74242;BME280;62599;49.146;10.426;2023-04-03T06:38:39;96531.41;;;1.10;94.00
74242;BME280;62599;49.146;10.426;2023-04-03T06:41:04;96530.00;;;1.02;92.78
74242;BME280;62599;49.146;10.426;2023-04-03T06:43:30;96538.91;;;0.91;92.64
74242;BME280;62599;49.146;10.426;2023-04-03T06:45:58;96538.91;;;0.91;92.54
74242;BME280;62599;49.146;10.426;2023-04-03T06:48:23;96533.16;;;0.99;92.33
74242;BME280;62599;49.146;10.426;2023-04-03T06:50:49;96545.09;;;1.02;92.56
74242;BME280;62599;49.146;10.426;2023-04-03T06:53:15;96540.84;;;1.01;91.68
74242;BME280;62599;49.146;10.426;2023-04-03T06:55:40;96534.75;;;1.00;91.29
74242;BME280;62599;49.146;10.426;2023-04-03T06:58:06;96547.63;;;1.13;91.54
74242;BME280;62599;49.146;10.426;2023-04-03T07:00:32;96549.81;;;1.22;91.91
74242;BME280;62599;49.146;10.426;2023-04-03T07:02:57;96543.75;;;1.26;89.23
74242;BME280;62599;49.146;10.426;2023-04-03T07:05:24;96549.97;;;1.37;88.76
74242;BME280;62599;49.146;10.426;2023-04-03T07:07:50;96554.00;;;1.39;88.13
74242;BME280;62599;49.146;10.426;2023-04-03T07:10:15;96561.84;;;1.29;88.43
74242;BME280;62599;49.146;10.426;2023-04-03T07:12:41;96563.75;;;1.34;89.61
74242;BME280;62599;49.146;10.426;2023-04-03T07:15:07;96564.63;;;1.44;88.55
74242;BME280;62599;49.146;10.426;2023-04-03T07:17:33;96561.91;;;1.66;88.64
74242;BME280;62599;49.146;10.426;2023-04-03T07:19:59;96562.94;;;1.60;85.61
74242;BME280;62599;49.146;10.426;2023-04-03T07:22:25;96569.56;;;1.58;85.91
74242;BME280;62599;49.146;10.426;2023-04-03T07:24:50;96567.59;;;1.75;86.14
74242;BME280;62599;49.146;10.426;2023-04-03T07:27:16;96567.75;;;1.63;86.13
74242;BME280;62599;49.146;10.426;2023-04-03T07:29:43;96564.94;;;1.48;86.98
74242;BME280;62599;49.146;10.426;2023-04-03T07:32:09;96575.41;;;1.60;87.08
74242;BME280;62599;49.146;10.426;2023-04-03T07:34:35;96578.13;;;1.97;86.31
74242;BME280;62599;49.146;10.426;2023-04-03T07:37:01;96573.75;;;2.18;85.69
74242;BME280;62599;49.146;10.426;2023-04-03T07:39:27;96573.97;;;2.11;86.13
74242;BME280;62599;49.146;10.426;2023-04-03T07:41:53;96570.69;;;1.99;83.98
74242;BME280;62599;49.146;10.426;2023-04-03T07:44:20;96577.03;;;1.93;85.45
74242;BME280;62599;49.146;10.426;2023-04-03T07:46:46;96580.88;;;2.12;85.26
74242;BME280;62599;49.146;10.426;2023-04-03T07:49:14;96587.75;;;2.46;83.62
74242;BME280;62599;49.146;10.426;2023-04-03T07:51:40;96583.63;;;2.28;83.49
74242;BME280;62599;49.146;10.426;2023-04-03T07:54:06;96581.94;;;2.11;83.82
74242;BME280;62599;49.146;10.426;2023-04-03T07:56:31;96582.06;;;1.95;84.93
74242;BME280;62599;49.146;10.426;2023-04-03T07:58:57;96590.03;;;2.32;84.96
74242;BME280;62599;49.146;10.426;2023-04-03T08:01:22;96591.25;;;2.56;83.82
74242;BME280;62599;49.146;10.426;2023-04-03T08:03:48;96586.81;;;2.72;81.71
74242;BME280;62599;49.146;10.426;2023-04-03T08:06:16;96588.44;;;2.78;80.37
74242;BME280;62599;49.146;10.426;2023-04-03T08:08:42;96584.44;;;2.76;81.39
74242;BME280;62599;49.146;10.426;2023-04-03T08:11:11;96582.94;;;2.95;80.93
74242;BME280;62599;49.146;10.426;2023-04-03T08:13:36;96595.78;;;3.13;80.97
74242;BME280;62599;49.146;10.426;2023-04-03T08:16:10;96586.13;;;2.97;79.68
74242;BME280;62599;49.146;10.426;2023-04-03T08:18:36;96593.19;;;2.71;80.40
74242;BME280;62599;49.146;10.426;2023-04-03T08:21:05;96597.94;;;2.59;80.60
74242;BME280;62599;49.146;10.426;2023-04-03T08:23:31;96587.38;;;2.74;80.49
74242;BME280;62599;49.146;10.426;2023-04-03T08:25:56;96594.50;;;2.63;79.42
74242;BME280;62599;49.146;10.426;2023-04-03T08:28:21;96595.19;;;3.01;80.60
74242;BME280;62599;49.146;10.426;2023-04-03T08:30:47;96586.28;;;3.43;79.11
74242;BME280;62599;49.146;10.426;2023-04-03T08:33:12;96603.81;;;3.24;77.19
74242;BME280;62599;49.146;10.426;2023-04-03T08:35:39;96598.03;;;3.57;78.38
74242;BME280;62599;49.146;10.426;2023-04-03T08:38:05;96598.31;;;3.76;75.75
74242;BME280;62599;49.146;10.426;2023-04-03T08:40:31;96593.25;;;4.21;76.40
74242;BME280;62599;49.146;10.426;2023-04-03T08:48:12;96597.53;;;3.71;73.72
74242;BME280;62599;49.146;10.426;2023-04-03T08:50:46;96600.19;;;3.81;73.06
74242;BME280;62599;49.146;10.426;2023-04-03T08:53:34;96594.81;;;3.45;74.50
74242;BME280;62599;49.146;10.426;2023-04-03T08:56:09;96600.72;;;3.68;74.74
74242;BME280;62599;49.146;10.426;2023-04-03T08:58:42;96599.66;;;3.84;72.97
74242;BME280;62599;49.146;10.426;2023-04-03T09:01:21;96617.19;;;3.49;72.48
74242;BME280;62599;49.146;10.426;2023-04-03T09:03:48;96607.94;;;3.93;72.67
74242;BME280;62599;49.146;10.426;2023-04-03T09:06:17;96603.38;;;3.88;70.53
74242;BME280;62599;49.146;10.426;2023-04-03T09:16:59;96611.66;;;3.86;71.13
74242;BME280;62599;49.146;10.426;2023-04-03T09:22:00;96607.66;;;4.35;72.29
74242;BME280;62599;49.146;10.426;2023-04-03T09:24:28;96609.78;;;4.28;68.22
74242;BME280;62599;49.146;10.426;2023-04-03T09:27:07;96601.16;;;4.82;68.63
74242;BME280;62599;49.146;10.426;2023-04-03T09:29:39;96600.56;;;5.00;66.88
74242;BME280;62599;49.146;10.426;2023-04-03T09:32:19;96604.59;;;4.93;67.99
74242;BME280;62599;49.146;10.426;2023-04-03T09:34:47;96600.66;;;5.40;66.10
74242;BME280;62599;49.146;10.426;2023-04-03T09:37:46;96603.91;;;4.62;68.08
74242;BME280;62599;49.146;10.426;2023-04-03T09:42:49;96608.72;;;3.83;70.42
74242;BME280;62599;49.146;10.426;2023-04-03T09:45:42;96612.16;;;3.68;70.65
74242;BME280;62599;49.146;10.426;2023-04-03T09:53:43;96611.09;;;3.64;71.99
74242;BME280;62599;49.146;10.426;2023-04-03T09:58:42;96610.34;;;3.94;68.99
74242;BME280;62599;49.146;10.426;2023-04-03T10:01:32;96605.25;;;4.13;68.24
74242;BME280;62599;49.146;10.426;2023-04-03T10:06:45;96609.53;;;4.04;67.49
74242;BME280;62599;49.146;10.426;2023-04-03T10:09:17;96610.34;;;3.89;67.08
74242;BME280;62599;49.146;10.426;2023-04-03T10:12:11;96614.88;;;4.04;62.84
74242;BME280;62599;49.146;10.426;2023-04-03T10:20:37;96597.03;;;4.15;62.82
74242;BME280;62599;49.146;10.426;2023-04-03T10:26:06;96596.47;;;4.23;64.36
74242;BME280;62599;49.146;10.426;2023-04-03T10:31:56;96598.06;;;3.98;63.52
74242;BME280;62599;49.146;10.426;2023-04-03T10:34:28;96601.53;;;4.09;62.11
74242;BME280;62599;49.146;10.426;2023-04-03T10:45:53;96592.47;;;4.30;55.44
74242;BME280;62599;49.146;10.426;2023-04-03T10:48:40;96587.31;;;4.65;56.06
74242;BME280;62599;49.146;10.426;2023-04-03T10:56:31;96588.47;;;4.43;55.64
74242;BME280;62599;49.146;10.426;2023-04-03T10:59:07;96585.22;;;4.46;57.88
74242;BME280;62599;49.146;10.426;2023-04-03T11:01:38;96582.56;;;4.51;57.53
74242;BME280;62599;49.146;10.426;2023-04-03T11:04:06;96589.13;;;4.90;57.76
74242;BME280;62599;49.146;10.426;2023-04-03T11:06:59;96576.09;;;4.78;56.64
74242;BME280;62599;49.146;10.426;2023-04-03T11:09:26;96570.75;;;4.78;56.60
74242;BME280;62599;49.146;10.426;2023-04-03T11:12:02;96573.78;;;5.21;56.81
74242;BME280;62599;49.146;10.426;2023-04-03T11:14:32;96571.09;;;5.26;55.92
74242;BME280;62599;49.146;10.426;2023-04-03T11:17:05;96569.41;;;5.45;55.72
74242;BME280;62599;49.146;10.426;2023-04-03T11:19:45;96565.00;;;5.65;55.18
74242;BME280;62599;49.146;10.426;2023-04-03T11:24:42;96562.56;;;5.19;53.61
74242;BME280;62599;49.146;10.426;2023-04-03T11:27:16;96562.28;;;5.25;54.73
74242;BME280;62599;49.146;10.426;2023-04-03T11:29:43;96563.59;;;5.28;56.47
74242;BME280;62599;49.146;10.426;2023-04-03T11:32:29;96561.63;;;5.49;54.28
74242;BME280;62599;49.146;10.426;2023-04-03T11:34:59;96556.28;;;5.44;54.02
74242;BME280;62599;49.146;10.426;2023-04-03T11:37:46;96561.56;;;5.04;53.10
74242;BME280;62599;49.146;10.426;2023-04-03T11:42:42;96552.38;;;5.26;53.48
74242;BME280;62599;49.146;10.426;2023-04-03T11:53:41;96543.22;;;6.16;52.48
74242;BME280;62599;49.146;10.426;2023-04-03T11:58:16;96537.25;;;5.95;49.94
74242;BME280;62599;49.146;10.426;2023-04-03T12:35:00;96521.88;;;5.37;54.19
74242;BME280;62599;49.146;10.426;2023-04-03T12:37:40;96526.09;;;6.17;51.81
74242;BME280;62599;49.146;10.426;2023-04-03T12:48:33;96512.06;;;6.30;48.80
74242;BME280;62599;49.146;10.426;2023-04-03T12:51:03;96510.66;;;6.09;49.35
74242;BME280;62599;49.146;10.426;2023-04-03T12:53:32;96509.41;;;5.67;49.38
74242;BME280;62599;49.146;10.426;2023-04-03T12:58:49;96506.25;;;6.95;49.76
74242;BME280;62599;49.146;10.426;2023-04-03T13:01:17;96499.28;;;7.88;46.90
74242;BME280;62599;49.146;10.426;2023-04-03T13:03:45;96494.56;;;7.80;44.04
74242;BME280;62599;49.146;10.426;2023-04-03T13:06:40;96509.00;;;6.42;47.02
74242;BME280;62599;49.146;10.426;2023-04-03T13:09:25;96508.56;;;5.71;50.52
74242;BME280;62599;49.146;10.426;2023-04-03T13:11:59;96512.66;;;5.19;51.72
74242;BME280;62599;49.146;10.426;2023-04-03T13:14:32;96514.94;;;5.36;52.57
74242;BME280;62599;49.146;10.426;2023-04-03T13:16:59;96511.25;;;5.66;51.04
74242;BME280;62599;49.146;10.426;2023-04-03T13:19:27;96504.38;;;5.94;49.39
74242;BME280;62599;49.146;10.426;2023-04-03T13:22:01;96505.19;;;6.48;51.49
74242;BME280;62599;49.146;10.426;2023-04-03T13:24:29;96505.13;;;7.20;49.40
74242;BME280;62599;49.146;10.426;2023-04-03T13:26:56;96497.53;;;8.11;48.17
74242;BME280;62599;49.146;10.426;2023-04-03T13:29:30;96487.66;;;8.67;45.29
74242;BME280;62599;49.146;10.426;2023-04-03T13:31:57;96486.66;;;8.35;43.48
74242;BME280;62599;49.146;10.426;2023-04-03T13:34:28;96494.13;;;7.73;45.74
74242;BME280;62599;49.146;10.426;2023-04-03T13:37:00;96498.25;;;6.71;46.17
74242;BME280;62599;49.146;10.426;2023-04-03T13:39:34;96494.41;;;5.71;49.34
74242;BME280;62599;49.146;10.426;2023-04-03T13:42:24;96493.69;;;5.21;49.34
74242;BME280;62599;49.146;10.426;2023-04-03T13:44:47;96498.28;;;5.10;50.41
74242;BME280;62599;49.146;10.426;2023-04-03T13:47:22;96496.41;;;5.16;51.73
74242;BME280;62599;49.146;10.426;2023-04-03T13:50:12;96504.50;;;4.95;50.50
74242;BME280;62599;49.146;10.426;2023-04-03T13:57:59;96485.81;;;5.74;49.90
74242;BME280;62599;49.146;10.426;2023-04-03T14:00:39;96480.50;;;6.32;49.06
74242;BME280;62599;49.146;10.426;2023-04-03T14:03:25;96488.63;;;6.46;49.62
74242;BME280;62599;49.146;10.426;2023-04-03T14:05:51;96487.06;;;6.16;48.72
74242;BME280;62599;49.146;10.426;2023-04-03T14:08:18;96483.31;;;6.17;50.03
74242;BME280;62599;49.146;10.426;2023-04-03T14:10:45;96482.06;;;5.75;48.17
74242;BME280;62599;49.146;10.426;2023-04-03T14:13:17;96484.69;;;5.80;49.16
74242;BME280;62599;49.146;10.426;2023-04-03T14:15:43;96478.06;;;5.72;48.50
74242;BME280;62599;49.146;10.426;2023-04-03T14:18:12;96484.44;;;5.76;48.39
74242;BME280;62599;49.146;10.426;2023-04-03T14:20:38;96480.38;;;5.84;48.63
74242;BME280;62599;49.146;10.426;2023-04-03T14:23:03;96475.28;;;6.17;47.24
74242;BME280;62599;49.146;10.426;2023-04-03T14:25:29;96467.16;;;6.51;47.64
74242;BME280;62599;49.146;10.426;2023-04-03T14:27:54;96470.44;;;6.67;46.07
74242;BME280;62599;49.146;10.426;2023-04-03T14:30:26;96462.38;;;7.47;46.60
74242;BME280;62599;49.146;10.426;2023-04-03T14:32:55;96462.53;;;7.89;45.93
74242;BME280;62599;49.146;10.426;2023-04-03T14:35:22;96467.38;;;7.35;45.79
74242;BME280;62599;49.146;10.426;2023-04-03T14:37:48;96461.69;;;6.13;48.26
74242;BME280;62599;49.146;10.426;2023-04-03T14:40:18;96464.34;;;5.84;48.70
74242;BME280;62599;49.146;10.426;2023-04-03T14:42:44;96468.66;;;5.46;50.40
74242;BME280;62599;49.146;10.426;2023-04-03T14:45:13;96463.44;;;5.30;49.99
74242;BME280;62599;49.146;10.426;2023-04-03T14:47:47;96464.66;;;5.09;49.74
74242;BME280;62599;49.146;10.426;2023-04-03T14:50:17;96460.59;;;4.72;50.62
74242;BME280;62599;49.146;10.426;2023-04-03T14:52:46;96466.50;;;4.59;52.81
74242;BME280;62599;49.146;10.426;2023-04-03T14:55:15;96454.56;;;4.41;51.48
74242;BME280;62599;49.146;10.426;2023-04-03T14:57:42;96449.81;;;4.28;51.67
74242;BME280;62599;49.146;10.426;2023-04-03T15:00:13;96455.06;;;4.48;51.87
74242;BME280;62599;49.146;10.426;2023-04-03T15:02:39;96442.91;;;4.87;49.97
74242;BME280;62599;49.146;10.426;2023-04-03T15:05:07;96454.53;;;5.06;49.49
74242;BME280;62599;49.146;10.426;2023-04-03T15:07:43;96446.09;;;5.28;48.99
74242;BME280;62599;49.146;10.426;2023-04-03T15:10:32;96448.97;;;5.71;49.71